Time;durP1;ratioP1;P1;durP2;ratioP2;P2;SDS_P1;SDS_P2;PMS_P1;PMS_P2;Temp;Humidity;BMP_temperature;BMP_pressure;BME280_temperature;BME280_humidity;BME280_pressure;Samples;Min_cycle;Max_cycle;Signal;HPM_P1;HPM_P2
2023/10/06 00:00:54;;;;;;;4.22;1.50;;;15.60;99.90;;;;;;5067504;28;20051;-64
2023/10/06 00:03:22;;;;;;;4.50;1.17;;;15.60;99.90;;;;;;5067276;28;20045;-64
2023/10/06 00:05:50;;;;;;;6.65;1.27;;;15.60;99.90;;;;;;5053796;28;20052;-64
2023/10/06 00:08:18;;;;;;;7.65;1.67;;;15.60;99.90;;;;;;5047650;28;20037;-64
2023/10/06 00:10:54;;;;;;;6.20;1.20;;;15.60;99.90;;;;;;5047085;28;20048;-63
2023/10/06 00:13:31;;;;;;;5.75;1.15;;;15.60;99.90;;;;;;5047179;28;20408;-65
2023/10/06 00:16:05;;;;;;;4.05;1.20;;;15.60;99.90;;;;;;5061040;28;20048;-63
2023/10/06 00:18:36;;;;;;;5.32;1.27;;;15.60;99.90;;;;;;5049328;28;20499;-63
2023/10/06 00:21:15;;;;;;;3.20;1.20;;;15.60;99.90;;;;;;5047182;28;20048;-62
2023/10/06 00:23:43;;;;;;;5.72;1.52;;;15.60;99.90;;;;;;5066838;28;20053;-62
2023/10/06 00:26:12;;;;;;;4.55;1.08;;;15.60;99.90;;;;;;5060776;28;20041;-62
2023/10/06 00:28:45;;;;;;;3.95;1.88;;;15.60;99.90;;;;;;5049415;28;20427;-64
2023/10/06 00:31:14;;;;;;;5.15;1.20;;;15.60;99.90;;;;;;5050745;28;20388;-65
2023/10/06 00:33:43;;;;;;;3.55;0.90;;;15.60;99.90;;;;;;5070049;28;20060;-63
2023/10/06 00:36:13;;;;;;;;;;;15.60;99.90;;;;;;5055131;28;20045;-62
2023/10/06 00:38:44;;;;;;;3.65;1.15;;;15.60;99.90;;;;;;5033166;28;19925;-64
2023/10/06 00:41:16;;;;;;;3.35;1.40;;;15.60;99.90;;;;;;5050826;28;20037;-62
2023/10/06 00:43:44;;;;;;;6.70;1.10;;;15.60;99.90;;;;;;5032494;28;20063;-62
2023/10/06 00:46:14;;;;;;;6.82;1.20;;;15.60;99.90;;;;;;5058383;28;20056;-62
2023/10/06 00:48:44;;;;;;;3.67;1.05;;;15.60;99.90;;;;;;5033031;28;20037;-62
2023/10/06 00:51:19;;;;;;;4.22;1.10;;;15.60;99.90;;;;;;5032448;28;20603;-63
2023/10/06 00:53:55;;;;;;;5.97;0.93;;;15.60;99.90;;;;;;5068578;28;20055;-62
2023/10/06 00:56:28;;;;;;;5.28;1.45;;;15.60;99.90;;;;;;5069845;28;20208;-62
2023/10/06 00:58:58;;;;;;;6.07;1.20;;;15.60;99.90;;;;;;5070331;28;20045;-62
2023/10/06 01:01:26;;;;;;;5.07;1.10;;;15.60;99.90;;;;;;5069065;28;20053;-62
2023/10/06 01:04:00;;;;;;;7.13;1.17;;;15.70;99.90;;;;;;5029732;28;20041;-62
2023/10/06 01:06:37;;;;;;;2.92;0.70;;;15.70;99.90;;;;;;5047928;28;20500;-63
2023/10/06 01:11:50;;;;;;;5.40;1.27;;;15.70;99.90;;;;;;5034923;28;20045;-63
2023/10/06 01:14:26;;;;;;;1.95;1.13;;;15.70;99.90;;;;;;5069994;28;20051;-62
2023/10/06 01:19:47;;;;;;;3.88;0.85;;;15.70;99.90;;;;;;5068334;28;20531;-64
2023/10/06 01:22:28;;;;;;;2.25;0.90;;;15.70;99.90;;;;;;5036332;28;20053;-63
2023/10/06 01:24:58;;;;;;;3.35;1.17;;;15.70;99.90;;;;;;5053702;28;20043;-63
2023/10/06 01:27:26;;;;;;;3.92;1.40;;;15.70;99.90;;;;;;5069348;28;20499;-65
2023/10/06 01:32:45;;;;;;;4.78;1.05;;;15.80;99.90;;;;;;5065325;28;20052;-64
2023/10/06 01:35:13;;;;;;;3.08;1.05;;;15.80;99.90;;;;;;5066905;28;20491;-63
2023/10/06 01:37:45;;;;;;;3.40;0.85;;;15.80;99.90;;;;;;5020694;28;20055;-64
2023/10/06 01:42:57;;;;;;;4.45;0.93;;;15.80;99.90;;;;;;5035105;28;20055;-64
2023/10/06 01:45:26;;;;;;;5.50;1.30;;;15.80;99.90;;;;;;5024287;28;20037;-64
2023/10/06 01:48:18;;;;;;;3.53;0.88;;;15.80;99.90;;;;;;5062332;28;20049;-63
2023/10/06 01:50:44;;;;;;;4.80;1.20;;;15.90;99.90;;;;;;5052359;28;20049;-64
2023/10/06 01:53:18;;;;;;;4.53;1.20;;;15.90;99.90;;;;;;5034656;28;20045;-64
2023/10/06 01:55:54;;;;;;;3.92;1.35;;;15.90;99.90;;;;;;5045041;28;20045;-61
2023/10/06 01:58:21;;;;;;;7.03;1.08;;;15.80;99.90;;;;;;5054053;28;20040;-60
2023/10/06 02:00:50;;;;;;;6.65;1.42;;;15.80;99.90;;;;;;5072401;28;20056;-62
2023/10/06 02:03:21;;;;;;;6.20;1.45;;;15.80;99.90;;;;;;5072416;28;20399;-60
2023/10/06 02:05:54;;;;;;;6.63;1.60;;;15.80;99.90;;;;;;5043666;28;20055;-61
2023/10/06 02:08:23;;;;;;;8.40;1.45;;;15.80;99.90;;;;;;5034631;28;20045;-61
2023/10/06 02:10:51;;;;;;;4.45;1.17;;;15.80;99.90;;;;;;5051345;28;20128;-61
2023/10/06 02:13:22;;;;;;;5.15;1.30;;;15.80;99.90;;;;;;5034333;28;20045;-62
2023/10/06 02:15:58;;;;;;;5.85;1.80;;;15.70;99.90;;;;;;5043416;28;20059;-61
2023/10/06 02:18:37;;;;;;;4.78;1.48;;;15.70;99.90;;;;;;5072159;28;20041;-61
2023/10/06 02:21:23;;;;;;;5.95;1.27;;;15.70;99.90;;;;;;5047961;28;20037;-61
2023/10/06 02:23:51;;;;;;;6.20;1.60;;;15.70;99.90;;;;;;5051915;28;20082;-61
2023/10/06 02:26:19;;;;;;;5.03;1.75;;;15.70;99.90;;;;;;5064116;28;20040;-61
2023/10/06 02:28:49;;;;;;;7.88;1.83;;;15.70;99.90;;;;;;5072076;28;20477;-59
2023/10/06 02:31:23;;;;;;;9.35;1.60;;;15.70;99.90;;;;;;5062198;28;20045;-60
2023/10/06 02:33:51;;;;;;;11.00;2.40;;;15.70;99.90;;;;;;5051848;28;20059;-61
2023/10/06 02:36:22;;;;;;;7.50;1.73;;;15.70;99.90;;;;;;5062914;28;20114;-61
2023/10/06 02:38:51;;;;;;;7.40;1.50;;;15.60;99.90;;;;;;5071002;28;20479;-61
2023/10/06 02:41:21;;;;;;;5.35;1.58;;;15.70;99.90;;;;;;5070397;28;20045;-62
2023/10/06 02:43:50;;;;;;;6.78;1.30;;;15.70;99.90;;;;;;5053895;28;20059;-62
2023/10/06 02:46:23;;;;;;;6.68;1.52;;;15.70;99.90;;;;;;5071411;28;20052;-62
2023/10/06 02:48:51;;;;;;;4.85;1.33;;;15.70;99.90;;;;;;5070484;28;20052;-62
2023/10/06 02:51:32;;;;;;;6.95;1.80;;;15.70;99.90;;;;;;5064575;28;20484;-63
2023/10/06 02:56:46;;;;;;;10.40;1.73;;;15.70;99.90;;;;;;5062636;28;20064;-61
2023/10/06 02:59:26;;;;;;;7.95;1.35;;;15.70;99.90;;;;;;5070861;28;20037;-61
2023/10/06 03:02:06;;;;;;;5.22;1.63;;;15.70;99.90;;;;;;5071159;28;20048;-61
2023/10/06 03:04:39;;;;;;;7.97;1.77;;;15.70;99.90;;;;;;5071380;28;20049;-62
2023/10/06 03:07:14;;;;;;;7.18;2.53;;;15.70;99.90;;;;;;5056181;28;20484;-60
2023/10/06 03:09:47;;;;;;;12.27;2.13;;;15.70;99.90;;;;;;5053529;28;20040;-60
2023/10/06 03:12:25;;;;;;;4.57;1.20;;;15.70;99.90;;;;;;5068177;28;20055;-62
2023/10/06 03:14:56;;;;;;;8.55;1.95;;;15.70;99.90;;;;;;5069987;28;20511;-62
2023/10/06 03:17:24;;;;;;;4.63;1.83;;;15.70;99.90;;;;;;5053860;28;20055;-62
2023/10/06 03:20:10;;;;;;;9.40;2.30;;;15.70;99.90;;;;;;5049823;28;20045;-62
2023/10/06 03:22:40;;;;;;;11.70;2.03;;;15.80;99.90;;;;;;5063170;28;20037;-61
2023/10/06 03:25:16;;;;;;;7.13;1.90;;;15.80;99.90;;;;;;5070002;28;20047;-62
2023/10/06 03:27:49;;;;;;;10.00;2.42;;;15.70;99.90;;;;;;5053369;28;20053;-61
2023/10/06 03:30:35;;;;;;;9.95;2.05;;;15.70;99.90;;;;;;5049553;28;20497;-62
2023/10/06 03:33:04;;;;;;;6.13;2.13;;;15.70;99.90;;;;;;5069626;28;20049;-63
2023/10/06 03:35:45;;;;;;;11.85;2.20;;;15.70;99.90;;;;;;5068765;28;20037;-63
2023/10/06 03:46:09;;;;;;;9.43;2.08;;;15.70;99.90;;;;;;5054038;28;20419;-64
2023/10/06 03:48:38;;;;;;;12.93;2.30;;;15.70;99.90;;;;;;5070973;28;20431;-64
2023/10/06 03:51:06;;;;;;;10.07;2.22;;;15.70;99.90;;;;;;5068474;28;20040;-64
2023/10/06 03:53:33;;;;;;;6.50;1.40;;;15.70;99.90;;;;;;5049060;28;20053;-64
2023/10/06 03:56:01;;;;;;;9.73;2.35;;;15.70;99.90;;;;;;5053133;28;20067;-63
2023/10/06 03:58:32;;;;;;;10.38;1.85;;;15.70;99.90;;;;;;5070667;28;20519;-63
2023/10/06 04:01:07;;;;;;;10.63;2.78;;;15.70;99.90;;;;;;5070330;28;20048;-63
2023/10/06 04:03:36;;;;;;;8.50;1.85;;;15.80;99.90;;;;;;5072179;28;20048;-63
2023/10/06 04:06:04;;;;;;;12.10;2.20;;;15.70;99.90;;;;;;5071647;28;20059;-64
2023/10/06 04:08:32;;;;;;;9.68;2.15;;;15.80;99.90;;;;;;5054529;28;20060;-60
2023/10/06 04:11:04;;;;;;;15.85;2.95;;;15.80;99.90;;;;;;5054526;28;20041;-63
2023/10/06 04:13:32;;;;;;;18.73;3.60;;;15.80;99.90;;;;;;5062587;28;20049;-63
2023/10/06 04:16:02;;;;;;;15.73;2.70;;;15.80;99.90;;;;;;5074414;28;20044;-64
2023/10/06 04:18:30;;;;;;;12.18;1.85;;;15.80;99.90;;;;;;5074275;28;20079;-63
2023/10/06 04:21:02;;;;;;;10.95;2.28;;;15.80;99.90;;;;;;5073342;28;20045;-62
2023/10/06 04:23:30;;;;;;;13.20;2.17;;;15.80;99.90;;;;;;5054555;28;20048;-62
2023/10/06 04:25:58;;;;;;;8.93;1.88;;;15.80;99.90;;;;;;5055383;28;20056;-63
2023/10/06 04:28:32;;;;;;;13.95;2.22;;;15.80;99.90;;;;;;5074231;28;20410;-62
2023/10/06 04:31:05;;;;;;;8.88;1.73;;;15.80;99.90;;;;;;5073925;28;20060;-63
2023/10/06 04:33:33;;;;;;;10.55;2.85;;;15.80;99.90;;;;;;5074237;28;20051;-61
2023/10/06 04:36:07;;;;;;;6.93;1.80;;;15.80;99.90;;;;;;5072424;28;20060;-62
2023/10/06 04:38:40;;;;;;;12.13;2.00;;;15.80;99.90;;;;;;5053526;28;20057;-62
2023/10/06 04:41:09;;;;;;;9.27;1.42;;;15.80;99.90;;;;;;5053971;28;20041;-63
2023/10/06 04:43:44;;;;;;;11.10;1.60;;;15.80;99.90;;;;;;5054232;28;20615;-61
2023/10/06 04:46:13;;;;;;;9.05;1.70;;;15.80;99.90;;;;;;5053721;28;20048;-61
2023/10/06 04:48:42;;;;;;;7.23;2.10;;;15.80;99.90;;;;;;5066006;28;20051;-60
2023/10/06 04:51:10;;;;;;;5.97;1.67;;;15.80;99.90;;;;;;5051648;28;20049;-61
2023/10/06 04:53:38;;;;;;;7.68;2.05;;;15.80;99.90;;;;;;5049565;28;20052;-63
2023/10/06 04:56:08;;;;;;;7.15;1.98;;;15.80;99.90;;;;;;5049897;28;20400;-63
2023/10/06 04:58:39;;;;;;;9.88;2.17;;;15.80;99.90;;;;;;5062304;28;20044;-65
2023/10/06 05:01:08;;;;;;;4.85;1.50;;;15.80;99.90;;;;;;5070129;28;20052;-63
2023/10/06 05:03:43;;;;;;;6.22;2.03;;;15.80;99.90;;;;;;5062105;28;20538;-63
2023/10/06 05:06:15;;;;;;;6.78;1.40;;;15.80;99.90;;;;;;5030739;28;20040;-62
2023/10/06 05:08:48;;;;;;;7.15;1.33;;;15.80;99.90;;;;;;5058143;28;20045;-63
2023/10/06 05:11:18;;;;;;;5.18;1.80;;;15.80;99.90;;;;;;5049257;28;20045;-62
2023/10/06 05:13:52;;;;;;;5.88;1.60;;;15.80;99.90;;;;;;5052357;28;20056;-62
2023/10/06 05:16:22;;;;;;;7.15;1.55;;;15.80;99.90;;;;;;5030680;28;20056;-62
2023/10/06 05:18:51;;;;;;;;;;;15.80;99.90;;;;;;5062421;28;20500;-63
2023/10/06 05:21:20;;;;;;;6.82;1.73;;;15.70;99.90;;;;;;5048052;28;19927;-63
2023/10/06 05:23:48;;;;;;;6.97;1.60;;;15.70;99.90;;;;;;5033023;28;20076;-63
2023/10/06 05:26:16;;;;;;;4.72;1.55;;;15.70;99.90;;;;;;5066358;28;20037;-63
2023/10/06 05:28:44;;;;;;;5.47;1.60;;;15.70;99.90;;;;;;5067762;28;20056;-64
2023/10/06 05:31:12;;;;;;;6.13;1.80;;;15.70;99.90;;;;;;5051501;28;20064;-62
2023/10/06 05:33:40;;;;;;;10.05;1.77;;;15.70;99.90;;;;;;5063474;28;20134;-63
2023/10/06 05:36:12;;;;;;;6.60;1.92;;;15.80;99.90;;;;;;5057200;28;20045;-60
2023/10/06 05:38:45;;;;;;;4.60;1.73;;;15.70;99.90;;;;;;5059578;28;20059;-60
2023/10/06 05:41:15;;;;;;;6.60;2.03;;;15.70;99.90;;;;;;5055063;28;20041;-63
2023/10/06 05:43:43;;;;;;;8.07;1.75;;;15.70;99.90;;;;;;5052157;28;20053;-63
2023/10/06 05:46:11;;;;;;;5.57;1.63;;;15.70;99.90;;;;;;5046275;28;20056;-61
2023/10/06 05:48:41;;;;;;;4.63;1.20;;;15.70;99.90;;;;;;5060497;28;20559;-61
2023/10/06 05:51:09;;;;;;;;;;;15.80;99.90;;;;;;5059947;28;20045;-62
2023/10/06 05:53:41;;;;;;;8.50;1.98;;;15.70;99.90;;;;;;5058553;28;19920;-62
2023/10/06 05:56:09;;;;;;;7.50;1.77;;;15.70;99.90;;;;;;5047253;28;20052;-63
2023/10/06 05:58:37;;;;;;;11.95;1.58;;;15.70;99.90;;;;;;5047981;28;20071;-63
2023/10/06 06:01:06;;;;;;;7.53;1.50;;;15.70;99.90;;;;;;5038133;28;20052;-64
2023/10/06 06:03:34;;;;;;;3.75;1.20;;;15.70;99.90;;;;;;5048903;28;20055;-63
2023/10/06 06:06:10;;;;;;;5.38;1.40;;;15.80;99.90;;;;;;5062329;28;20045;-63
2023/10/06 06:08:40;;;;;;;3.47;1.40;;;15.80;99.90;;;;;;5048730;28;20376;-61
2023/10/06 06:11:08;;;;;;;4.38;1.00;;;15.80;99.90;;;;;;5047703;28;20057;-63
2023/10/06 06:13:38;;;;;;;7.15;1.60;;;15.80;99.90;;;;;;5065206;28;20419;-63
2023/10/06 06:16:06;;;;;;;4.55;1.23;;;15.80;99.90;;;;;;5067784;28;20048;-65
2023/10/06 06:18:34;;;;;;;5.43;1.40;;;15.80;99.90;;;;;;5064881;28;20048;-63
2023/10/06 06:21:02;;;;;;;1.85;0.90;;;15.80;99.90;;;;;;5060182;28;20056;-63
2023/10/06 06:23:35;;;;;;;3.92;1.23;;;15.80;99.90;;;;;;5055499;28;20045;-63
2023/10/06 06:26:04;;;;;;;5.68;1.20;;;15.80;99.90;;;;;;5066103;28;20044;-61
2023/10/06 06:28:31;;;;;;;3.47;1.10;;;15.80;99.90;;;;;;5060549;28;20045;-62
2023/10/06 06:31:04;;;;;;;5.82;1.27;;;15.80;99.90;;;;;;5045919;28;20052;-63
2023/10/06 06:33:33;;;;;;;2.33;0.80;;;15.80;99.90;;;;;;5062213;28;20512;-63
2023/10/06 06:36:00;;;;;;;3.88;0.90;;;15.80;99.90;;;;;;5048818;28;20389;-64
2023/10/06 06:38:28;;;;;;;5.93;1.08;;;15.90;99.90;;;;;;5056125;28;20048;-64
2023/10/06 06:40:59;;;;;;;3.58;0.77;;;15.90;99.90;;;;;;5065859;28;20059;-62
2023/10/06 06:43:29;;;;;;;1.35;0.90;;;15.90;99.90;;;;;;5050782;28;20996;-63
2023/10/06 06:45:58;;;;;;;4.20;0.90;;;15.90;99.90;;;;;;5051140;28;20496;-64
2023/10/06 06:48:27;;;;;;;5.53;0.90;;;15.90;99.90;;;;;;5051251;28;20052;-62
2023/10/06 06:50:54;;;;;;;3.20;0.70;;;15.90;99.90;;;;;;5030290;28;20052;-61
2023/10/06 06:53:23;;;;;;;1.70;0.70;;;16.00;99.90;;;;;;5050525;28;20048;-62
2023/10/06 06:55:51;;;;;;;3.15;1.00;;;16.00;99.90;;;;;;5048270;28;20064;-64
2023/10/06 06:58:19;;;;;;;1.48;0.60;;;16.00;99.90;;;;;;5055032;28;20059;-64
2023/10/06 07:00:48;;;;;;;2.63;0.50;;;16.00;99.90;;;;;;5051241;28;20040;-63
2023/10/06 07:03:16;;;;;;;1.55;0.57;;;16.10;99.90;;;;;;5051526;28;20072;-64
2023/10/06 07:05:46;;;;;;;3.22;0.60;;;16.10;99.90;;;;;;5044697;28;20057;-61
2023/10/06 07:08:15;;;;;;;2.75;0.68;;;16.10;99.90;;;;;;5044005;28;20876;-64
2023/10/06 07:10:52;;;;;;;1.15;0.40;;;16.10;99.90;;;;;;5046895;28;20053;-64
2023/10/06 07:13:24;;;;;;;4.38;0.98;;;16.10;99.90;;;;;;5064107;28;20040;-64
2023/10/06 07:15:53;;;;;;;1.13;0.60;;;16.20;99.90;;;;;;5047242;28;20049;-62
2023/10/06 07:18:23;;;;;;;1.77;0.55;;;16.20;99.90;;;;;;5035432;28;20044;-64
2023/10/06 07:20:51;;;;;;;;;;;16.20;99.90;;;;;;5027006;28;20107;-65
2023/10/06 07:23:19;;;;;;;2.28;0.63;;;16.20;99.90;;;;;;5044742;28;19928;-65
2023/10/06 07:25:46;;;;;;;4.15;0.70;;;16.20;99.90;;;;;;5044909;28;20048;-64
2023/10/06 07:28:15;;;;;;;2.50;0.70;;;16.30;99.90;;;;;;5058181;28;20045;-64
2023/10/06 07:30:42;;;;;;;2.63;1.27;;;16.30;99.90;;;;;;5048307;28;20049;-63
2023/10/06 07:33:10;;;;;;;1.50;0.70;;;16.30;99.90;;;;;;5049630;28;20045;-63
2023/10/06 07:35:43;;;;;;;1.50;0.60;;;16.30;99.90;;;;;;5047090;28;20072;-64
2023/10/06 07:38:12;;;;;;;3.53;1.13;;;16.30;99.90;;;;;;5050891;28;20061;-62
2023/10/06 07:40:42;;;;;;;3.80;1.15;;;16.40;99.90;;;;;;5017617;28;20063;-63
2023/10/06 07:43:10;;;;;;;1.65;0.70;;;16.40;99.90;;;;;;5048255;28;20045;-64
2023/10/06 07:45:38;;;;;;;2.40;0.85;;;16.50;99.90;;;;;;5053750;28;20488;-64
2023/10/06 07:48:06;;;;;;;3.58;0.95;;;16.50;99.90;;;;;;5069734;28;20044;-65
2023/10/06 07:50:34;;;;;;;5.53;0.98;;;16.50;99.90;;;;;;5064738;28;20051;-64
2023/10/06 07:53:02;;;;;;;1.30;1.00;;;16.50;99.90;;;;;;5053278;28;20041;-65
2023/10/06 07:55:31;;;;;;;5.18;1.00;;;16.50;99.90;;;;;;5050927;28;20044;-63
2023/10/06 07:58:02;;;;;;;3.53;1.00;;;16.60;99.90;;;;;;5063407;28;20056;-64
2023/10/06 08:00:32;;;;;;;2.85;0.88;;;16.60;99.90;;;;;;5063909;28;20053;-64
2023/10/06 08:03:00;;;;;;;;;;;16.70;99.90;;;;;;5046405;28;20451;-64
2023/10/06 08:05:28;;;;;;;6.13;1.23;;;16.70;99.90;;;;;;5059108;28;20485;-64
2023/10/06 08:07:58;;;;;;;4.28;1.17;;;16.80;99.90;;;;;;5044205;28;20049;-61
2023/10/06 08:10:30;;;;;;;4.75;1.15;;;16.90;99.90;;;;;;5044195;28;20045;-63
2023/10/06 08:13:01;;;;;;;3.25;1.08;;;16.90;99.90;;;;;;5051190;28;20047;-63
2023/10/06 08:15:32;;;;;;;4.28;1.38;;;17.00;99.90;;;;;;5062164;28;20049;-63
2023/10/06 08:18:03;;;;;;;5.10;2.03;;;17.00;99.90;;;;;;5069728;28;20063;-63
2023/10/06 08:20:31;;;;;;;6.50;1.63;;;17.10;99.90;;;;;;5068261;28;20033;-62
2023/10/06 08:23:02;;;;;;;5.40;1.23;;;17.10;99.90;;;;;;5063229;28;20049;-64
2023/10/06 08:25:30;;;;;;;5.25;1.55;;;17.10;99.90;;;;;;5055456;28;20040;-62
2023/10/06 08:28:12;;;;;;;7.63;1.60;;;17.20;99.90;;;;;;5062196;28;20060;-64
2023/10/06 08:30:41;;;;;;;2.88;1.42;;;17.30;99.90;;;;;;5066554;28;20063;-65
2023/10/06 08:33:09;;;;;;;2.85;1.30;;;17.40;99.90;;;;;;5067549;28;20041;-65
2023/10/06 08:35:40;;;;;;;2.30;1.20;;;17.50;99.90;;;;;;5050914;28;20404;-63
2023/10/06 08:38:08;;;;;;;4.93;1.23;;;17.50;99.90;;;;;;5050733;28;20048;-64
2023/10/06 08:40:41;;;;;;;6.57;1.88;;;17.70;99.90;;;;;;5062489;28;20048;-63
2023/10/06 08:43:15;;;;;;;6.82;1.20;;;17.70;99.90;;;;;;5067059;28;20044;-62
2023/10/06 08:45:43;;;;;;;4.85;1.20;;;17.80;99.90;;;;;;5070835;28;20056;-63
2023/10/06 08:48:13;;;;;;;5.30;1.30;;;17.80;99.90;;;;;;5056920;28;20041;-63
2023/10/06 08:50:44;;;;;;;4.72;0.90;;;17.80;99.90;;;;;;5052373;28;20063;-64
2023/10/06 08:53:15;;;;;;;7.95;1.30;;;17.90;99.90;;;;;;5043332;28;20120;-62
2023/10/06 08:55:44;;;;;;;5.13;1.27;;;17.80;99.90;;;;;;5056693;28;20045;-64
2023/10/06 08:58:14;;;;;;;7.05;1.30;;;17.80;99.90;;;;;;5049449;28;20053;-65
2023/10/06 09:00:46;;;;;;;5.22;1.33;;;17.80;99.90;;;;;;5051610;28;20167;-63
2023/10/06 09:03:18;;;;;;;6.53;1.60;;;17.80;99.90;;;;;;5061517;28;20055;-65
2023/10/06 09:05:47;;;;;;;8.15;1.50;;;17.80;99.90;;;;;;5069479;28;20064;-62
2023/10/06 09:08:17;;;;;;;3.38;1.40;;;17.80;99.90;;;;;;5059700;28;20431;-62
2023/10/06 09:10:50;;;;;;;7.57;1.98;;;17.80;99.90;;;;;;5061956;28;20048;-63
2023/10/06 09:13:21;;;;;;;4.95;1.30;;;17.90;99.90;;;;;;5069781;28;20534;-62
2023/10/06 09:16:06;;;;;;;5.25;1.48;;;17.90;99.90;;;;;;5068722;28;20043;-64
2023/10/06 09:18:38;;;;;;;4.13;1.30;;;18.00;99.90;;;;;;5049470;28;20403;-64
2023/10/06 09:21:21;;;;;;;6.38;1.55;;;18.00;99.90;;;;;;5068576;28;20467;-64
2023/10/06 09:23:49;;;;;;;6.68;1.50;;;18.10;99.90;;;;;;5058179;28;20044;-64
2023/10/06 09:26:29;;;;;;;3.63;1.27;;;18.20;99.90;;;;;;5065435;28;20052;-64
2023/10/06 09:29:01;;;;;;;5.90;1.92;;;18.20;99.90;;;;;;5056391;28;20048;-64
2023/10/06 09:31:38;;;;;;;8.38;1.55;;;18.20;99.90;;;;;;5059995;28;20048;-65
2023/10/06 09:34:08;;;;;;;6.28;1.25;;;18.30;99.90;;;;;;5066913;28;20048;-63
2023/10/06 09:36:42;;;;;;;4.40;1.65;;;18.30;99.90;;;;;;5065661;28;20048;-65
2023/10/06 09:39:29;;;;;;;9.80;1.77;;;18.40;99.90;;;;;;5065511;28;20424;-64
2023/10/06 09:41:58;;;;;;;9.02;2.05;;;18.40;99.90;;;;;;5069183;28;20476;-65
2023/10/06 09:44:27;;;;;;;5.18;1.98;;;18.50;99.90;;;;;;5049407;28;20056;-64
2023/10/06 09:47:00;;;;;;;4.72;1.38;;;18.60;99.90;;;;;;5059318;28;20041;-64
2023/10/06 09:49:30;;;;;;;6.53;1.70;;;18.60;99.90;;;;;;5064165;28;20048;-65
2023/10/06 09:52:03;;;;;;;7.43;1.63;;;18.60;99.90;;;;;;5067969;28;20044;-64
2023/10/06 09:54:32;;;;;;;4.97;1.60;;;18.70;99.90;;;;;;5052023;28;20055;-65
2023/10/06 09:57:01;;;;;;;6.70;1.43;;;18.90;99.90;;;;;;5049904;28;20040;-64
2023/10/06 09:59:32;;;;;;;6.35;1.40;;;18.90;99.90;;;;;;5052311;28;21095;-64
2023/10/06 10:02:03;;;;;;;7.15;1.48;;;19.00;99.90;;;;;;5066715;28;20049;-65
2023/10/06 10:04:33;;;;;;;8.05;1.58;;;18.90;99.90;;;;;;5053991;28;20051;-64
2023/10/06 10:07:02;;;;;;;4.15;1.67;;;18.90;99.90;;;;;;5066015;28;20056;-65
2023/10/06 10:09:34;;;;;;;3.42;1.02;;;18.90;99.90;;;;;;5061125;28;20041;-65
2023/10/06 10:12:27;;;;;;;6.75;1.58;;;18.90;99.90;;;;;;5067347;28;20629;-62
2023/10/06 10:15:21;;;;;;;4.97;1.30;;;18.90;99.90;;;;;;5065827;28;20166;-65
2023/10/06 10:18:15;;;;;;;5.95;1.35;;;18.90;99.90;;;;;;5062007;28;20049;-64
2023/10/06 10:20:46;;;;;;;4.32;1.40;;;18.80;99.90;;;;;;5064629;28;20049;-64
2023/10/06 10:23:16;;;;;;;4.60;1.17;;;18.90;99.90;;;;;;5057177;28;20048;-65
2023/10/06 10:25:44;;;;;;;2.67;1.20;;;18.80;99.90;;;;;;5055485;28;20506;-65
2023/10/06 10:28:19;;;;;;;5.82;1.55;;;18.90;99.90;;;;;;5058493;28;20048;-67
2023/10/06 10:30:49;;;;;;;2.83;1.20;;;18.90;99.90;;;;;;5067312;28;20510;-63
2023/10/06 10:33:24;;;;;;;6.70;1.23;;;18.90;99.90;;;;;;5047933;28;20079;-63
2023/10/06 10:36:18;;;;;;;7.88;1.90;;;19.00;99.90;;;;;;5064889;28;20049;-64
2023/10/06 10:39:02;;;;;;;6.82;1.17;;;19.00;99.90;;;;;;5051295;28;20056;-63
2023/10/06 10:41:35;;;;;;;3.40;1.27;;;19.10;99.90;;;;;;5054907;28;20045;-65
2023/10/06 10:44:04;;;;;;;4.93;1.27;;;19.20;99.90;;;;;;5050198;28;20037;-64
2023/10/06 10:46:53;;;;;;;3.90;0.85;;;19.20;99.90;;;;;;5060435;28;20060;-65
2023/10/06 10:49:22;;;;;;;3.60;0.80;;;19.20;99.90;;;;;;5056092;28;20036;-63
2023/10/06 10:52:01;;;;;;;4.00;1.10;;;19.30;99.90;;;;;;5065447;28;20047;-65
2023/10/06 10:54:31;;;;;;;6.53;1.17;;;19.30;99.90;;;;;;5052522;28;20392;-65
2023/10/06 10:57:11;;;;;;;5.65;1.17;;;19.40;99.90;;;;;;5056256;28;20060;-65
2023/10/06 11:00:12;;;;;;;2.67;1.10;;;19.40;99.90;;;;;;5030393;28;20045;-65
2023/10/06 11:02:40;;;;;;;3.47;1.00;;;19.60;99.90;;;;;;5055837;28;20415;-65
2023/10/06 11:05:09;;;;;;;4.90;0.80;;;19.70;99.90;;;;;;5062227;28;20044;-65
2023/10/06 11:07:37;;;;;;;6.18;1.10;;;19.80;99.90;;;;;;5060626;28;20048;-64
2023/10/06 11:10:06;;;;;;;3.70;0.98;;;19.90;99.90;;;;;;5055877;28;20049;-63
2023/10/06 11:12:35;;;;;;;2.97;0.60;;;19.90;99.90;;;;;;5059527;28;20063;-63
2023/10/06 11:15:13;;;;;;;2.03;0.90;;;19.90;99.90;;;;;;5053991;28;20045;-63
2023/10/06 11:17:44;;;;;;;2.88;1.10;;;19.90;99.90;;;;;;5055200;28;20504;-63
2023/10/06 11:20:27;;;;;;;2.80;0.70;;;19.90;99.90;;;;;;5053261;28;20665;-64
2023/10/06 11:23:03;;;;;;;2.00;0.70;;;20.00;99.90;;;;;;5060078;28;20071;-64
2023/10/06 11:25:38;;;;;;;4.47;0.88;;;20.00;99.90;;;;;;5056378;28;20048;-65
2023/10/06 11:28:08;;;;;;;5.00;0.90;;;20.00;99.90;;;;;;5046963;28;20562;-64
2023/10/06 11:30:38;;;;;;;2.47;0.95;;;20.00;99.90;;;;;;5058619;28;20396;-64
2023/10/06 11:33:10;;;;;;;5.78;0.90;;;20.00;99.90;;;;;;5046279;28;20049;-63
2023/10/06 11:35:38;;;;;;;3.80;0.80;;;20.00;99.90;;;;;;5062455;28;20040;-65
2023/10/06 11:38:11;;;;;;;3.28;0.75;;;20.10;99.90;;;;;;5067441;28;20056;-64
2023/10/06 11:40:40;;;;;;;1.50;0.60;;;20.30;99.90;;;;;;5066320;28;20500;-66
2023/10/06 11:43:11;;;;;;;2.55;0.77;;;20.50;99.90;;;;;;5058240;28;20048;-65
2023/10/06 11:45:41;;;;;;;6.15;0.98;;;20.50;99.90;;;;;;5063591;28;20435;-66
2023/10/06 11:48:29;;;;;;;3.15;0.60;;;20.60;99.90;;;;;;5062546;28;20422;-66
2023/10/06 11:51:01;;;;;;;3.33;0.70;;;20.90;99.90;;;;;;5052773;28;20037;-66
2023/10/06 11:53:29;;;;;;;3.58;0.77;;;21.10;99.90;;;;;;5054860;28;20049;-64
2023/10/06 11:56:09;;;;;;;1.38;0.60;;;21.20;99.90;;;;;;5055367;28;20567;-65
2023/10/06 11:58:41;;;;;;;3.95;0.95;;;21.10;99.90;;;;;;5058245;28;20399;-65
2023/10/06 12:01:32;;;;;;;5.03;0.80;;;20.90;99.90;;;;;;5049479;28;20052;-65
2023/10/06 12:04:04;;;;;;;4.35;1.00;;;20.90;99.90;;;;;;5041053;28;20060;-65
2023/10/06 12:06:38;;;;;;;3.55;0.80;;;20.80;99.90;;;;;;5049541;28;20052;-65
2023/10/06 12:09:13;;;;;;;1.52;0.73;;;20.80;99.90;;;;;;5057525;28;20045;-66
2023/10/06 12:11:42;;;;;;;2.80;1.10;;;20.90;99.90;;;;;;5047907;28;20507;-62
2023/10/06 12:14:10;;;;;;;3.95;1.00;;;21.00;99.90;;;;;;5043151;28;20041;-65
2023/10/06 12:16:44;;;;;;;2.10;0.90;;;21.20;99.90;;;;;;5052833;28;20488;-65
2023/10/06 12:19:13;;;;;;;4.28;0.80;;;21.50;99.90;;;;;;5057354;28;20037;-65
2023/10/06 12:21:40;;;;;;;3.58;1.10;;;21.80;99.90;;;;;;5052031;28;20045;-65
2023/10/06 12:24:11;;;;;;;5.63;1.35;;;22.00;99.90;;;;;;5040222;28;20045;-66
2023/10/06 12:26:39;;;;;;;4.15;1.00;;;21.90;99.90;;;;;;5050959;28;20098;-66
2023/10/06 12:29:07;;;;;;;4.22;0.80;;;21.70;99.90;;;;;;5052655;28;20052;-64
2023/10/06 12:31:35;;;;;;;2.50;0.90;;;21.50;99.90;;;;;;5064957;28;20045;-65
2023/10/06 12:34:03;;;;;;;2.42;0.73;;;21.40;99.90;;;;;;5065200;28;20044;-65
2023/10/06 12:36:32;;;;;;;3.92;1.10;;;21.20;99.90;;;;;;5070832;28;20507;-65
2023/10/06 12:38:59;;;;;;;1.27;0.70;;;20.90;99.90;;;;;;5070618;28;20052;-66
2023/10/06 12:41:27;;;;;;;6.38;0.90;;;20.70;99.90;;;;;;5070609;28;20057;-66
2023/10/06 12:43:59;;;;;;;3.03;0.80;;;20.60;99.90;;;;;;5070399;28;20048;-67
2023/10/06 12:46:33;;;;;;;4.53;1.00;;;20.40;99.90;;;;;;5066504;28;20048;-67
2023/10/06 12:49:06;;;;;;;2.38;0.90;;;20.20;99.90;;;;;;5047711;28;20044;-66
2023/10/06 12:51:36;;;;;;;2.63;0.80;;;20.10;99.90;;;;;;5070597;28;20048;-65
2023/10/06 12:54:06;;;;;;;4.38;1.40;;;20.00;99.90;;;;;;5070096;28;20483;-63
2023/10/06 12:56:35;;;;;;;6.22;1.20;;;19.90;99.90;;;;;;5070532;28;20052;-65
2023/10/06 12:59:04;;;;;;;2.25;1.02;;;19.80;99.90;;;;;;5067089;28;20495;-62
2023/10/06 13:01:32;;;;;;;4.57;1.10;;;19.80;99.90;;;;;;5045838;28;20052;-64
2023/10/06 13:04:02;;;;;;;5.03;0.90;;;19.90;99.90;;;;;;5049516;28;20044;-65
2023/10/06 13:06:30;;;;;;;0.95;0.68;;;20.00;99.90;;;;;;5053232;28;20040;-64
2023/10/06 13:09:03;;;;;;;2.20;0.88;;;20.30;99.90;;;;;;5064162;28;20053;-64
2023/10/06 13:11:31;;;;;;;2.63;0.70;;;20.50;99.90;;;;;;5049232;28;20044;-63
2023/10/06 13:14:05;;;;;;;3.72;1.00;;;20.60;99.90;;;;;;5050844;28;20049;-64
2023/10/06 13:16:34;;;;;;;3.10;0.68;;;20.50;99.90;;;;;;5047635;28;20052;-65
2023/10/06 13:19:02;;;;;;;2.80;0.98;;;20.60;99.90;;;;;;5054088;28;20573;-63
2023/10/06 13:21:30;;;;;;;2.03;0.80;;;20.60;99.90;;;;;;5046722;28;20044;-65
2023/10/06 13:24:00;;;;;;;;;;;20.70;99.90;;;;;;5063110;28;20049;-62
2023/10/06 13:26:34;;;;;;;1.42;0.63;;;20.90;99.90;;;;;;5065742;28;19924;-65
2023/10/06 13:29:23;;;;;;;1.50;0.90;;;21.00;99.90;;;;;;5066824;28;20799;-65
2023/10/06 13:31:51;;;;;;;3.42;1.45;;;21.00;99.90;;;;;;5052589;28;20502;-65